createdAt,value
2022-10-07T00:01:11.778Z,9.88
2022-10-07T00:03:40.227Z,9.85
2022-10-07T00:06:11.674Z,9.81
2022-10-07T00:08:41.307Z,9.78
2022-10-07T00:11:11.720Z,9.77
2022-10-07T00:13:41.460Z,9.77
2022-10-07T00:16:13.533Z,9.69
2022-10-07T00:18:42.355Z,9.67
2022-10-07T00:21:13.140Z,9.65
2022-10-07T00:23:42.545Z,9.63
2022-10-07T00:26:13.174Z,9.50
2022-10-07T00:28:41.368Z,9.47
2022-10-07T00:31:13.356Z,9.50
2022-10-07T00:33:41.997Z,9.49
2022-10-07T00:36:19.201Z,9.56
2022-10-07T00:38:51.530Z,9.60
2022-10-07T00:41:21.853Z,9.58
2022-10-07T00:43:50.330Z,9.60
2022-10-07T00:46:27.283Z,9.65
2022-10-07T00:48:55.778Z,9.67
2022-10-07T00:51:23.942Z,9.67
2022-10-07T00:53:56.247Z,9.64
2022-10-07T00:56:27.079Z,9.61
2022-10-07T00:58:55.153Z,9.54
2022-10-07T01:01:25.182Z,9.54
2022-10-07T01:03:53.671Z,9.51
2022-10-07T01:06:22.214Z,9.51
2022-10-07T01:08:53.313Z,9.48
2022-10-07T01:11:35.048Z,9.49
2022-10-07T01:14:11.245Z,9.50
2022-10-07T01:16:50.759Z,9.43
2022-10-07T01:19:44.798Z,9.51
2022-10-07T01:22:23.986Z,9.51
2022-10-07T01:25:06.661Z,9.51
2022-10-07T01:27:38.408Z,9.55
2022-10-07T01:30:08.798Z,9.42
2022-10-07T01:32:40.410Z,9.40
2022-10-07T01:35:12.449Z,9.40
2022-10-07T01:37:46.034Z,9.43
2022-10-07T01:40:17.783Z,9.42
2022-10-07T01:42:47.751Z,9.43
2022-10-07T01:45:21.495Z,9.40
2022-10-07T01:47:50.463Z,9.38
2022-10-07T01:50:23.360Z,9.40
2022-10-07T01:53:06.710Z,9.43
2022-10-07T01:55:51.035Z,9.32
2022-10-07T01:58:45.600Z,9.28
2022-10-07T02:01:20.394Z,9.28
2022-10-07T02:04:07.779Z,9.27
2022-10-07T02:06:43.943Z,9.24
2022-10-07T02:09:21.914Z,9.22
2022-10-07T02:11:56.617Z,9.23
2022-10-07T02:14:38.303Z,9.24
2022-10-07T02:17:12.611Z,9.22
2022-10-07T02:19:47.956Z,9.22
2022-10-07T02:22:18.532Z,9.18
2022-10-07T02:24:48.996Z,9.22
2022-10-07T02:27:22.431Z,9.24
2022-10-07T02:29:59.358Z,9.26
2022-10-07T02:32:32.733Z,9.29
2022-10-07T02:35:05.734Z,9.31
2022-10-07T02:37:39.011Z,9.30
2022-10-07T02:40:12.075Z,9.17
2022-10-07T02:42:46.006Z,9.10
2022-10-07T02:45:25.877Z,9.08
2022-10-07T02:48:00.195Z,9.07
2022-10-07T02:50:35.570Z,9.01
2022-10-07T02:53:05.796Z,8.99
2022-10-07T02:55:36.179Z,8.97
2022-10-07T02:58:08.634Z,8.97
2022-10-07T03:00:43.576Z,8.94
2022-10-07T03:03:11.514Z,8.96
2022-10-07T03:05:59.349Z,8.99
2022-10-07T03:08:28.681Z,8.99
2022-10-07T03:10:57.844Z,8.94
2022-10-07T03:13:26.323Z,8.87
2022-10-07T03:16:00.647Z,8.92
2022-10-07T03:18:30.451Z,8.95
2022-10-07T03:21:25.170Z,9.03
2022-10-07T03:23:55.686Z,8.88
2022-10-07T03:26:27.644Z,8.95
2022-10-07T03:28:56.594Z,8.95
2022-10-07T03:31:28.618Z,8.87
2022-10-07T03:33:59.697Z,8.92
2022-10-07T03:36:28.599Z,8.90
2022-10-07T03:38:56.836Z,8.92
2022-10-07T03:41:25.840Z,8.91
2022-10-07T03:43:59.151Z,8.90
2022-10-07T03:46:29.790Z,8.87
2022-10-07T03:48:58.476Z,8.85
2022-10-07T03:51:26.860Z,8.87
2022-10-07T03:53:57.657Z,8.87
2022-10-07T03:56:28.508Z,8.84
2022-10-07T03:58:56.637Z,8.83
2022-10-07T04:01:26.019Z,8.76
2022-10-07T04:04:00.938Z,8.86
2022-10-07T04:06:32.351Z,8.84
2022-10-07T04:09:04.277Z,8.83
2022-10-07T04:11:32.403Z,8.76
2022-10-07T04:14:01.426Z,8.78
2022-10-07T04:16:34.693Z,8.75
2022-10-07T04:19:07.964Z,8.80
2022-10-07T04:21:36.054Z,8.76
2022-10-07T04:24:05.453Z,8.78
2022-10-07T04:26:36.794Z,8.65
2022-10-07T04:29:04.908Z,8.60
2022-10-07T04:31:33.082Z,8.67
2022-10-07T04:34:05.645Z,8.64
2022-10-07T04:36:38.542Z,8.62
2022-10-07T04:39:10.802Z,8.72
2022-10-07T04:41:44.090Z,8.58
2022-10-07T04:44:19.436Z,8.63
2022-10-07T04:46:56.584Z,8.61
2022-10-07T04:49:27.044Z,8.52
2022-10-07T04:51:57.505Z,8.52
2022-10-07T04:54:29.598Z,8.58
2022-10-07T04:56:57.602Z,8.44
2022-10-07T04:59:29.913Z,8.52
2022-10-07T05:01:58.969Z,8.50
2022-10-07T05:04:27.861Z,8.59
2022-10-07T05:06:59.590Z,8.53
2022-10-07T05:09:28.323Z,8.53
2022-10-07T05:11:57.738Z,8.55
2022-10-07T05:14:25.741Z,8.54
2022-10-07T05:16:54.925Z,8.48
2022-10-07T05:19:26.228Z,8.59
2022-10-07T05:21:55.249Z,8.59
2022-10-07T05:24:26.206Z,8.63
2022-10-07T05:26:54.741Z,8.54
2022-10-07T05:29:23.502Z,8.61
2022-10-07T05:31:53.984Z,8.62
2022-10-07T05:34:25.282Z,8.63
2022-10-07T05:36:54.953Z,8.66
2022-10-07T05:39:23.847Z,8.49
2022-10-07T05:42:13.844Z,8.62
2022-10-07T05:44:49.677Z,8.62
2022-10-07T05:47:20.338Z,8.64
2022-10-07T05:49:49.578Z,8.72
2022-10-07T05:52:18.988Z,8.65
2022-10-07T05:54:47.076Z,8.69
2022-10-07T05:57:17.812Z,8.84
2022-10-07T05:59:45.980Z,8.83
2022-10-07T06:02:17.256Z,8.74
2022-10-07T06:04:48.121Z,8.65
2022-10-07T06:07:20.933Z,8.76
2022-10-07T06:10:10.144Z,8.80
2022-10-07T06:12:57.459Z,8.81
2022-10-07T06:15:25.688Z,8.85
2022-10-07T06:17:54.086Z,8.87
2022-10-07T06:20:22.957Z,8.88
2022-10-07T06:22:54.284Z,8.93
2022-10-07T06:25:22.918Z,9.05
2022-10-07T06:27:54.479Z,9.10
2022-10-07T06:30:25.382Z,9.18
2022-10-07T06:32:54.843Z,9.05
2022-10-07T06:35:23.806Z,9.00
2022-10-07T06:37:55.172Z,9.11
2022-10-07T06:40:24.986Z,9.21
2022-10-07T06:42:55.736Z,9.22
2022-10-07T06:45:31.954Z,9.25
2022-10-07T06:48:00.719Z,9.33
2022-10-07T06:50:29.329Z,9.39
2022-10-07T06:52:57.767Z,9.45
2022-10-07T06:55:27.546Z,9.49
2022-10-07T06:57:57.396Z,9.51
2022-10-07T07:00:25.763Z,9.56
2022-10-07T07:02:56.688Z,9.62
2022-10-07T07:05:25.071Z,9.58
2022-10-07T07:07:53.329Z,9.65
2022-10-07T07:10:21.296Z,9.69
2022-10-07T07:12:54.040Z,9.76
2022-10-07T07:15:23.762Z,9.78
2022-10-07T07:17:52.067Z,9.86
2022-10-07T07:20:22.391Z,9.96
2022-10-07T07:22:52.468Z,10.01
2022-10-07T07:25:21.551Z,10.09
2022-10-07T07:27:56.810Z,10.16
2022-10-07T07:30:27.922Z,10.21
2022-10-07T07:32:57.967Z,10.26
2022-10-07T07:35:28.497Z,10.32
2022-10-07T07:37:56.644Z,10.44
2022-10-07T07:40:25.247Z,10.54
2022-10-07T07:42:55.700Z,10.54
2022-10-07T07:45:24.485Z,10.64
2022-10-07T07:47:54.194Z,10.63
2022-10-07T07:50:27.122Z,10.69
2022-10-07T07:52:57.623Z,10.74
2022-10-07T07:55:26.323Z,10.80
2022-10-07T07:57:54.372Z,10.85
2022-10-07T08:00:22.596Z,10.98
2022-10-07T08:03:01.654Z,11.09
2022-10-07T08:05:30.142Z,11.20
2022-10-07T08:08:00.198Z,11.22
2022-10-07T08:10:29.781Z,11.33
2022-10-07T08:12:57.838Z,11.41
2022-10-07T08:15:25.935Z,11.47
2022-10-07T08:17:53.978Z,11.56
2022-10-07T08:20:23.349Z,11.65
2022-10-07T08:22:53.574Z,11.75
2022-10-07T08:25:25.804Z,11.79
2022-10-07T08:27:55.182Z,11.92
2022-10-07T08:30:24.001Z,11.99
2022-10-07T08:32:52.159Z,12.15
2022-10-07T08:35:20.141Z,12.26
2022-10-07T08:37:49.430Z,12.23
2022-10-07T08:40:18.817Z,12.32
2022-10-07T08:42:48.398Z,12.39
2022-10-07T08:45:27.570Z,12.51
2022-10-07T08:47:57.504Z,12.59
2022-10-07T08:50:30.981Z,12.56
2022-10-07T08:53:04.223Z,12.61
2022-10-07T08:55:44.431Z,12.63
2022-10-07T08:58:36.107Z,12.78
2022-10-07T09:01:15.642Z,12.92
2022-10-07T09:03:52.112Z,12.93
2022-10-07T09:06:27.944Z,13.00
2022-10-07T09:09:03.699Z,13.19
2022-10-07T09:11:36.027Z,13.16
2022-10-07T09:14:14.986Z,13.25
2022-10-07T09:16:46.161Z,13.23
2022-10-07T09:19:19.361Z,13.24
2022-10-07T09:21:50.260Z,13.29
2022-10-07T09:24:24.590Z,13.38
2022-10-07T09:26:55.177Z,13.41
2022-10-07T09:29:24.764Z,13.44
2022-10-07T09:31:53.556Z,13.48
2022-10-07T09:34:25.065Z,13.60
2022-10-07T09:37:20.672Z,13.69
2022-10-07T09:39:51.939Z,13.75
2022-10-07T09:42:29.803Z,13.84
2022-10-07T09:45:01.391Z,13.90
2022-10-07T09:47:33.300Z,13.96
2022-10-07T09:50:01.318Z,13.93
2022-10-07T09:52:30.217Z,14.03
2022-10-07T09:55:32.191Z,14.05
2022-10-07T09:58:01.798Z,14.12
2022-10-07T10:00:31.647Z,14.19
2022-10-07T10:03:06.051Z,14.23
2022-10-07T10:05:36.315Z,14.30
2022-10-07T10:08:06.689Z,14.31
2022-10-07T10:10:37.613Z,14.40
2022-10-07T10:13:07.635Z,14.38
2022-10-07T10:15:41.910Z,14.44
2022-10-07T10:18:30.692Z,14.42
2022-10-07T10:21:14.924Z,14.47
2022-10-07T10:23:47.922Z,14.51
2022-10-07T10:26:53.930Z,14.58
2022-10-07T10:29:32.956Z,14.59
2022-10-07T10:32:24.955Z,14.59
2022-10-07T10:35:01.105Z,14.62
2022-10-07T10:37:48.722Z,14.72
2022-10-07T10:40:27.141Z,14.85
2022-10-07T10:43:12.210Z,14.95
2022-10-07T10:45:48.472Z,15.03
2022-10-07T10:48:30.172Z,15.14
2022-10-07T10:51:10.233Z,15.28
2022-10-07T10:53:51.413Z,15.32
2022-10-07T10:56:32.192Z,15.30
2022-10-07T10:59:27.413Z,15.41
2022-10-07T11:02:02.351Z,15.52
2022-10-07T11:04:45.447Z,15.68
2022-10-07T11:07:21.276Z,15.83
2022-10-07T11:09:53.110Z,15.77
2022-10-07T11:12:28.688Z,15.82
2022-10-07T11:15:02.251Z,15.78
2022-10-07T11:17:32.944Z,15.91
2022-10-07T11:20:13.855Z,16.07
2022-10-07T11:22:48.722Z,16.16
2022-10-07T11:25:27.854Z,16.09
2022-10-07T11:28:01.569Z,16.28
2022-10-07T11:30:40.619Z,16.24
2022-10-07T11:33:16.402Z,16.38
2022-10-07T11:35:50.154Z,16.39
2022-10-07T11:38:21.938Z,16.47
2022-10-07T11:40:53.301Z,16.21
2022-10-07T11:43:29.854Z,16.37
2022-10-07T11:46:02.413Z,16.31
2022-10-07T11:48:38.877Z,16.34
2022-10-07T11:51:09.453Z,16.46
2022-10-07T11:53:39.890Z,16.43
2022-10-07T11:56:17.603Z,16.55
2022-10-07T11:58:48.984Z,16.56
2022-10-07T12:01:48.688Z,16.67
2022-10-07T12:04:24.965Z,16.70
2022-10-07T12:07:30.504Z,16.85
2022-10-07T12:10:21.950Z,16.72
2022-10-07T12:12:56.844Z,16.70
2022-10-07T12:15:32.180Z,16.69
2022-10-07T12:18:25.470Z,16.71
2022-10-07T12:21:08.392Z,16.77
2022-10-07T12:23:43.990Z,16.86
2022-10-07T12:26:50.370Z,16.78
2022-10-07T12:29:36.612Z,16.85
2022-10-07T12:32:05.149Z,16.81
2022-10-07T12:34:41.165Z,16.93
2022-10-07T12:37:46.563Z,16.99
2022-10-07T12:40:18.668Z,17.03
2022-10-07T12:42:53.500Z,17.07
2022-10-07T12:45:23.492Z,16.98
2022-10-07T12:47:56.741Z,17.00
2022-10-07T12:50:28.023Z,16.96
2022-10-07T12:52:58.905Z,16.95
2022-10-07T12:55:33.189Z,16.97
2022-10-07T12:58:15.880Z,16.93
2022-10-07T13:00:57.316Z,16.97
2022-10-07T13:03:48.145Z,16.94
2022-10-07T13:07:09.050Z,17.02
2022-10-07T13:10:04.422Z,17.00
2022-10-07T13:12:40.005Z,17.05
2022-10-07T13:15:18.026Z,17.18
2022-10-07T13:17:51.747Z,17.22
2022-10-07T13:20:37.895Z,17.23
2022-10-07T13:23:15.180Z,17.25
2022-10-07T13:25:46.839Z,17.24
2022-10-07T13:28:18.026Z,17.17
2022-10-07T13:30:47.918Z,17.19
2022-10-07T13:33:31.611Z,17.20
2022-10-07T13:36:15.885Z,17.18
2022-10-07T13:38:47.777Z,17.20
2022-10-07T13:41:26.205Z,17.23
2022-10-07T13:43:57.810Z,17.21
2022-10-07T13:46:28.632Z,17.22
2022-10-07T13:48:58.081Z,17.23
2022-10-07T13:51:35.827Z,17.29
2022-10-07T13:54:08.817Z,17.36
2022-10-07T13:56:42.885Z,17.35
2022-10-07T13:59:16.090Z,17.42
2022-10-07T14:01:45.298Z,17.39
2022-10-07T14:04:25.417Z,17.42
2022-10-07T14:06:57.814Z,17.31
2022-10-07T14:09:38.813Z,17.24
2022-10-07T14:12:10.295Z,17.22
2022-10-07T14:14:40.992Z,17.24
2022-10-07T14:17:12.708Z,17.31
2022-10-07T14:19:41.548Z,17.27
2022-10-07T14:22:20.854Z,17.34
2022-10-07T14:24:56.701Z,17.40
2022-10-07T14:27:40.628Z,17.36
2022-10-07T14:30:55.576Z,17.36
2022-10-07T14:33:53.388Z,17.42
2022-10-07T14:36:23.504Z,17.43
2022-10-07T14:38:53.113Z,17.41
2022-10-07T14:41:24.027Z,17.44
2022-10-07T14:43:53.069Z,17.31
2022-10-07T14:46:22.805Z,17.27
2022-10-07T14:48:53.355Z,17.29
2022-10-07T14:51:27.026Z,17.29
2022-10-07T14:54:05.205Z,17.33
2022-10-07T14:56:37.071Z,17.37
2022-10-07T14:59:06.772Z,17.31
2022-10-07T15:01:35.116Z,17.29
2022-10-07T15:04:03.687Z,17.32
2022-10-07T15:06:32.845Z,17.34
2022-10-07T15:09:01.118Z,17.34
2022-10-07T15:11:29.315Z,17.32
2022-10-07T15:13:58.787Z,17.31
2022-10-07T15:16:28.985Z,17.29
2022-10-07T15:18:57.354Z,17.34
2022-10-07T15:21:25.466Z,17.25
2022-10-07T15:23:54.158Z,17.28
2022-10-07T15:26:24.433Z,17.24
2022-10-07T15:28:54.429Z,17.21
2022-10-07T15:31:26.098Z,17.26
2022-10-07T15:33:57.923Z,17.24
2022-10-07T15:36:27.703Z,17.14
2022-10-07T15:38:58.184Z,17.07
2022-10-07T15:41:36.222Z,16.98
2022-10-07T15:44:07.606Z,16.95
2022-10-07T15:46:37.162Z,16.98
2022-10-07T15:49:05.886Z,17.00
2022-10-07T15:51:36.348Z,16.89
2022-10-07T15:54:05.110Z,16.90
2022-10-07T15:56:34.953Z,16.79
2022-10-07T15:59:04.437Z,16.67
2022-10-07T16:01:33.275Z,16.72
2022-10-07T16:04:05.524Z,16.57
2022-10-07T16:06:37.067Z,16.53
2022-10-07T16:09:06.662Z,16.48
2022-10-07T16:11:35.630Z,16.31
2022-10-07T16:14:03.992Z,16.32
2022-10-07T16:16:32.771Z,16.16
2022-10-07T16:19:02.381Z,16.06
2022-10-07T16:21:33.936Z,16.00
2022-10-07T16:24:05.149Z,15.85
2022-10-07T16:26:35.903Z,15.78
2022-10-07T16:29:24.089Z,15.66
2022-10-07T16:31:58.297Z,15.54
2022-10-07T16:34:27.927Z,15.42
2022-10-07T16:36:59.043Z,15.36
2022-10-07T16:39:27.151Z,15.28
2022-10-07T16:41:56.483Z,15.23
2022-10-07T16:44:25.713Z,15.16
2022-10-07T16:46:56.951Z,15.04
2022-10-07T16:49:27.551Z,14.93
2022-10-07T16:51:57.788Z,14.87
2022-10-07T16:54:26.189Z,14.83
2022-10-07T16:56:54.405Z,14.73
2022-10-07T16:59:24.626Z,14.62
2022-10-07T17:01:55.502Z,14.51
2022-10-07T17:04:24.782Z,14.43
2022-10-07T17:06:54.157Z,14.40
2022-10-07T17:09:24.884Z,14.39
2022-10-07T17:11:53.127Z,14.39
2022-10-07T17:14:23.106Z,14.40
2022-10-07T17:16:53.282Z,14.19
2022-10-07T17:19:23.189Z,14.12
2022-10-07T17:21:57.191Z,14.08
2022-10-07T17:24:26.936Z,14.00
2022-10-07T17:26:56.270Z,13.98
2022-10-07T17:29:26.429Z,13.87
2022-10-07T17:31:56.451Z,13.83
2022-10-07T17:34:24.551Z,13.74
2022-10-07T17:36:54.286Z,13.75
2022-10-07T17:39:22.637Z,13.75
2022-10-07T17:41:52.010Z,13.75
2022-10-07T17:44:21.516Z,13.66
2022-10-07T17:46:50.322Z,13.63
2022-10-07T17:49:18.552Z,13.59
2022-10-07T17:51:46.696Z,13.53
2022-10-07T17:54:15.242Z,13.51
2022-10-07T17:56:44.521Z,13.47
2022-10-07T17:59:14.787Z,13.41
2022-10-07T18:01:43.340Z,13.41
2022-10-07T18:04:14.853Z,13.34
2022-10-07T18:06:44.025Z,13.32
2022-10-07T18:09:15.405Z,13.28
2022-10-07T18:12:01.058Z,13.24
2022-10-07T18:14:56.368Z,13.25
2022-10-07T18:17:25.335Z,13.19
2022-10-07T18:19:53.614Z,13.18
2022-10-07T18:22:24.328Z,13.13
2022-10-07T18:24:52.616Z,13.12
2022-10-07T18:27:26.941Z,13.10
2022-10-07T18:29:57.053Z,13.07
2022-10-07T18:32:25.897Z,13.06
2022-10-07T18:34:53.923Z,13.06
2022-10-07T18:37:23.058Z,13.07
2022-10-07T18:39:51.235Z,13.12
2022-10-07T18:42:19.331Z,13.01
2022-10-07T18:44:47.338Z,13.04
2022-10-07T18:47:17.068Z,13.01
2022-10-07T18:49:45.118Z,13.02
2022-10-07T18:52:13.553Z,12.92
2022-10-07T18:54:41.587Z,12.95
2022-10-07T18:57:09.700Z,12.95
2022-10-07T18:59:38.313Z,12.92
2022-10-07T19:02:07.701Z,12.85
2022-10-07T19:04:37.254Z,12.71
2022-10-07T19:07:05.294Z,12.69
2022-10-07T19:09:33.321Z,12.67
2022-10-07T19:12:01.498Z,12.64
2022-10-07T19:14:31.157Z,12.65
2022-10-07T19:16:59.189Z,12.56
2022-10-07T19:19:27.149Z,12.58
2022-10-07T19:21:57.533Z,12.55
2022-10-07T19:24:45.563Z,12.45
2022-10-07T19:27:14.266Z,12.35
2022-10-07T19:29:42.287Z,12.34
2022-10-07T19:32:10.304Z,12.33
2022-10-07T19:34:38.573Z,12.27
2022-10-07T19:37:07.861Z,12.27
2022-10-07T19:39:36.153Z,12.29
2022-10-07T19:42:04.458Z,12.25
2022-10-07T19:44:33.784Z,12.24
2022-10-07T19:47:02.798Z,12.15
2022-10-07T19:49:30.759Z,12.06
2022-10-07T19:51:58.858Z,12.04
2022-10-07T19:54:30.556Z,12.01
2022-10-07T19:56:58.568Z,11.97
2022-10-07T19:59:26.681Z,11.95
2022-10-07T20:01:58.840Z,11.99
2022-10-07T20:04:29.080Z,12.00
2022-10-07T20:07:01.277Z,12.03
2022-10-07T20:09:31.156Z,11.97
2022-10-07T20:12:00.835Z,11.95
2022-10-07T20:14:29.723Z,11.89
2022-10-07T20:16:58.074Z,11.85
2022-10-07T20:19:26.255Z,11.84
2022-10-07T20:22:19.815Z,11.81
2022-10-07T20:24:52.015Z,11.79
2022-10-07T20:27:20.123Z,11.69
2022-10-07T20:30:02.439Z,11.65
2022-10-07T20:32:34.393Z,11.60
2022-10-07T20:35:06.834Z,11.63
2022-10-07T20:37:34.845Z,11.64
2022-10-07T20:40:22.373Z,11.60
2022-10-07T20:42:51.963Z,11.70
2022-10-07T20:45:20.182Z,11.65
2022-10-07T20:47:48.531Z,11.60
2022-10-07T20:50:16.939Z,11.60
2022-10-07T20:52:45.717Z,11.59
2022-10-07T20:55:15.470Z,11.55
2022-10-07T20:57:43.429Z,11.56
2022-10-07T21:00:16.384Z,11.58
2022-10-07T21:02:45.463Z,11.64
2022-10-07T21:05:13.839Z,11.69
2022-10-07T21:07:42.243Z,11.70
2022-10-07T21:10:10.434Z,11.63
2022-10-07T21:12:40.456Z,11.62
2022-10-07T21:15:09.316Z,11.58
2022-10-07T21:17:38.787Z,11.57
2022-10-07T21:20:07.358Z,11.66
2022-10-07T21:22:36.968Z,11.60
2022-10-07T21:25:06.030Z,11.57
2022-10-07T21:27:34.074Z,11.48
2022-10-07T21:30:03.555Z,11.42
2022-10-07T21:32:31.611Z,11.45
2022-10-07T21:34:59.612Z,11.44
2022-10-07T21:37:29.746Z,11.37
2022-10-07T21:39:57.972Z,11.28
2022-10-07T21:42:25.972Z,11.27
2022-10-07T21:44:54.026Z,11.25
2022-10-07T21:47:23.337Z,11.18
2022-10-07T21:49:51.288Z,11.11
2022-10-07T21:52:19.437Z,11.08
2022-10-07T21:54:47.366Z,11.05
2022-10-07T21:57:15.331Z,11.09
2022-10-07T21:59:43.306Z,11.05
2022-10-07T22:02:11.528Z,11.03
2022-10-07T22:04:42.483Z,11.00
2022-10-07T22:07:29.466Z,10.97
2022-10-07T22:09:58.528Z,11.00
2022-10-07T22:12:27.292Z,10.99
2022-10-07T22:14:55.214Z,11.01
2022-10-07T22:17:23.214Z,10.98
2022-10-07T22:19:52.750Z,10.97
2022-10-07T22:22:20.750Z,10.95
2022-10-07T22:24:48.793Z,10.98
2022-10-07T22:27:16.895Z,10.97
2022-10-07T22:29:44.906Z,10.92
2022-10-07T22:32:12.957Z,10.90
2022-10-07T22:34:58.471Z,10.85
2022-10-07T22:37:28.591Z,10.88
2022-10-07T22:39:56.572Z,10.87
2022-10-07T22:42:24.625Z,10.81
2022-10-07T22:44:52.516Z,10.78
2022-10-07T22:47:20.490Z,10.77
2022-10-07T22:49:48.757Z,10.86
2022-10-07T22:52:16.708Z,10.81
2022-10-07T22:54:46.512Z,10.74
2022-10-07T22:57:14.722Z,10.74
2022-10-07T22:59:42.838Z,10.71
2022-10-07T23:02:10.925Z,10.69
2022-10-07T23:04:39.031Z,10.74
2022-10-07T23:07:07.289Z,10.74
2022-10-07T23:09:35.330Z,10.77
2022-10-07T23:12:06.474Z,10.75
2022-10-07T23:14:34.464Z,10.76
2022-10-07T23:17:05.030Z,10.78
2022-10-07T23:19:33.091Z,10.72
2022-10-07T23:22:01.284Z,10.77
2022-10-07T23:24:29.416Z,10.76
2022-10-07T23:26:57.418Z,10.79
2022-10-07T23:29:27.212Z,10.90
2022-10-07T23:31:55.276Z,10.70
2022-10-07T23:34:23.266Z,10.60
2022-10-07T23:36:55.230Z,10.55
2022-10-07T23:39:23.690Z,10.64
2022-10-07T23:41:51.604Z,10.73
2022-10-07T23:44:20.458Z,10.82
2022-10-07T23:46:51.738Z,10.70
2022-10-07T23:49:19.823Z,10.71
2022-10-07T23:51:47.844Z,10.53
2022-10-07T23:54:15.863Z,10.48
2022-10-07T23:56:43.981Z,10.51
2022-10-07T23:59:11.946Z,10.45
